sensor_id;sensor_type;location;lat;lon;timestamp;P1;durP1;ratioP1;P2;durP2;ratioP2
13090;SDS011;6611;52.604;13.438;2024-02-15T00:04:49;5.40;;;4.70;;
13090;SDS011;6611;52.604;13.438;2024-02-15T00:09:52;5.77;;;4.27;;
13090;SDS011;6611;52.604;13.438;2024-02-15T00:14:54;4.87;;;4.37;;
13090;SDS011;6611;52.604;13.438;2024-02-15T00:19:58;6.57;;;4.67;;
13090;SDS011;6611;52.604;13.438;2024-02-15T00:25:02;5.77;;;4.90;;
13090;SDS011;6611;52.604;13.438;2024-02-15T00:30:05;6.50;;;4.63;;
13090;SDS011;6611;52.604;13.438;2024-02-15T00:35:08;5.57;;;4.33;;
13090;SDS011;6611;52.604;13.438;2024-02-15T00:40:11;5.70;;;5.10;;
13090;SDS011;6611;52.604;13.438;2024-02-15T00:45:13;5.83;;;4.97;;
13090;SDS011;6611;52.604;13.438;2024-02-15T00:50:15;5.90;;;4.90;;
13090;SDS011;6611;52.604;13.438;2024-02-15T00:55:19;7.73;;;5.37;;
13090;SDS011;6611;52.604;13.438;2024-02-15T01:00:20;5.43;;;4.50;;
13090;SDS011;6611;52.604;13.438;2024-02-15T01:05:22;6.30;;;5.57;;
13090;SDS011;6611;52.604;13.438;2024-02-15T01:10:25;5.53;;;5.00;;
13090;SDS011;6611;52.604;13.438;2024-02-15T01:15:27;8.57;;;5.47;;
13090;SDS011;6611;52.604;13.438;2024-02-15T01:20:29;7.90;;;5.57;;
13090;SDS011;6611;52.604;13.438;2024-02-15T01:25:32;7.17;;;5.70;;
13090;SDS011;6611;52.604;13.438;2024-02-15T01:30:35;10.90;;;6.60;;
13090;SDS011;6611;52.604;13.438;2024-02-15T01:35:37;6.60;;;5.73;;
13090;SDS011;6611;52.604;13.438;2024-02-15T01:40:40;6.30;;;5.67;;
13090;SDS011;6611;52.604;13.438;2024-02-15T01:45:42;7.50;;;5.80;;
13090;SDS011;6611;52.604;13.438;2024-02-15T01:50:45;6.43;;;5.57;;
13090;SDS011;6611;52.604;13.438;2024-02-15T01:55:50;6.03;;;5.43;;
13090;SDS011;6611;52.604;13.438;2024-02-15T02:00:53;8.07;;;6.17;;
13090;SDS011;6611;52.604;13.438;2024-02-15T02:05:57;7.03;;;6.13;;
13090;SDS011;6611;52.604;13.438;2024-02-15T02:11:01;8.60;;;7.00;;
13090;SDS011;6611;52.604;13.438;2024-02-15T02:16:04;6.83;;;6.13;;
13090;SDS011;6611;52.604;13.438;2024-02-15T02:21:06;7.73;;;6.23;;
13090;SDS011;6611;52.604;13.438;2024-02-15T02:26:09;8.53;;;6.87;;
13090;SDS011;6611;52.604;13.438;2024-02-15T02:31:11;8.67;;;6.87;;
13090;SDS011;6611;52.604;13.438;2024-02-15T02:36:13;7.67;;;6.80;;
13090;SDS011;6611;52.604;13.438;2024-02-15T02:41:17;8.73;;;6.93;;
13090;SDS011;6611;52.604;13.438;2024-02-15T02:46:19;8.40;;;7.30;;
13090;SDS011;6611;52.604;13.438;2024-02-15T02:51:21;9.87;;;7.80;;
13090;SDS011;6611;52.604;13.438;2024-02-15T02:56:24;12.17;;;8.40;;
13090;SDS011;6611;52.604;13.438;2024-02-15T03:01:26;8.47;;;7.60;;
13090;SDS011;6611;52.604;13.438;2024-02-15T03:06:27;11.43;;;8.50;;
13090;SDS011;6611;52.604;13.438;2024-02-15T03:11:30;10.60;;;8.53;;
13090;SDS011;6611;52.604;13.438;2024-02-15T03:16:32;8.87;;;7.87;;
13090;SDS011;6611;52.604;13.438;2024-02-15T03:21:34;10.37;;;8.30;;
13090;SDS011;6611;52.604;13.438;2024-02-15T03:26:37;10.67;;;9.30;;
13090;SDS011;6611;52.604;13.438;2024-02-15T03:31:40;10.07;;;8.47;;
13090;SDS011;6611;52.604;13.438;2024-02-15T03:36:41;9.93;;;8.57;;
13090;SDS011;6611;52.604;13.438;2024-02-15T03:41:44;10.20;;;8.40;;
13090;SDS011;6611;52.604;13.438;2024-02-15T03:46:46;10.90;;;8.70;;
13090;SDS011;6611;52.604;13.438;2024-02-15T03:51:51;10.50;;;8.47;;
13090;SDS011;6611;52.604;13.438;2024-02-15T03:56:56;10.43;;;8.10;;
13090;SDS011;6611;52.604;13.438;2024-02-15T04:01:58;11.00;;;8.47;;
13090;SDS011;6611;52.604;13.438;2024-02-15T04:06:59;11.50;;;8.20;;
13090;SDS011;6611;52.604;13.438;2024-02-15T04:12:03;10.90;;;8.37;;
13090;SDS011;6611;52.604;13.438;2024-02-15T04:17:05;11.27;;;8.33;;
13090;SDS011;6611;52.604;13.438;2024-02-15T04:22:06;8.80;;;7.57;;
13090;SDS011;6611;52.604;13.438;2024-02-15T04:27:09;10.83;;;8.23;;
13090;SDS011;6611;52.604;13.438;2024-02-15T04:32:13;9.60;;;8.30;;
13090;SDS011;6611;52.604;13.438;2024-02-15T04:37:16;12.17;;;8.07;;
13090;SDS011;6611;52.604;13.438;2024-02-15T04:42:19;11.33;;;8.60;;
13090;SDS011;6611;52.604;13.438;2024-02-15T04:47:21;10.43;;;8.30;;
13090;SDS011;6611;52.604;13.438;2024-02-15T04:52:23;12.43;;;9.17;;
13090;SDS011;6611;52.604;13.438;2024-02-15T04:57:26;11.60;;;8.90;;
13090;SDS011;6611;52.604;13.438;2024-02-15T05:02:28;12.83;;;9.87;;
13090;SDS011;6611;52.604;13.438;2024-02-15T05:07:29;12.40;;;9.37;;
13090;SDS011;6611;52.604;13.438;2024-02-15T05:12:33;10.33;;;8.27;;
13090;SDS011;6611;52.604;13.438;2024-02-15T05:17:34;13.40;;;9.33;;
13090;SDS011;6611;52.604;13.438;2024-02-15T05:22:36;12.43;;;8.37;;
13090;SDS011;6611;52.604;13.438;2024-02-15T05:27:40;12.37;;;8.87;;
13090;SDS011;6611;52.604;13.438;2024-02-15T05:32:42;11.10;;;9.20;;
13090;SDS011;6611;52.604;13.438;2024-02-15T05:37:45;10.70;;;8.30;;
13090;SDS011;6611;52.604;13.438;2024-02-15T05:42:49;11.97;;;8.63;;
13090;SDS011;6611;52.604;13.438;2024-02-15T05:47:56;13.27;;;9.63;;
13090;SDS011;6611;52.604;13.438;2024-02-15T05:52:58;10.93;;;8.40;;
13090;SDS011;6611;52.604;13.438;2024-02-15T05:58:03;13.23;;;9.20;;
13090;SDS011;6611;52.604;13.438;2024-02-15T06:03:05;13.60;;;9.10;;
13090;SDS011;6611;52.604;13.438;2024-02-15T06:08:06;13.10;;;9.03;;
13090;SDS011;6611;52.604;13.438;2024-02-15T06:13:09;13.90;;;9.07;;
13090;SDS011;6611;52.604;13.438;2024-02-15T06:18:12;12.93;;;9.27;;
13090;SDS011;6611;52.604;13.438;2024-02-15T06:23:14;11.77;;;8.93;;
13090;SDS011;6611;52.604;13.438;2024-02-15T06:28:18;13.47;;;9.23;;
13090;SDS011;6611;52.604;13.438;2024-02-15T06:33:41;12.33;;;9.03;;
13090;SDS011;6611;52.604;13.438;2024-02-15T06:39:00;11.83;;;8.50;;
13090;SDS011;6611;52.604;13.438;2024-02-15T06:44:21;12.70;;;9.07;;
13090;SDS011;6611;52.604;13.438;2024-02-15T06:49:24;12.73;;;8.90;;
13090;SDS011;6611;52.604;13.438;2024-02-15T06:54:26;14.77;;;10.00;;
13090;SDS011;6611;52.604;13.438;2024-02-15T06:59:29;14.80;;;9.70;;
13090;SDS011;6611;52.604;13.438;2024-02-15T07:04:31;14.13;;;9.93;;
13090;SDS011;6611;52.604;13.438;2024-02-15T07:09:33;13.97;;;9.30;;
13090;SDS011;6611;52.604;13.438;2024-02-15T07:14:36;12.60;;;9.47;;
13090;SDS011;6611;52.604;13.438;2024-02-15T07:19:37;14.23;;;10.47;;
13090;SDS011;6611;52.604;13.438;2024-02-15T07:24:44;14.73;;;9.67;;
13090;SDS011;6611;52.604;13.438;2024-02-15T07:29:47;14.43;;;9.93;;
13090;SDS011;6611;52.604;13.438;2024-02-15T07:34:49;13.17;;;9.30;;
13090;SDS011;6611;52.604;13.438;2024-02-15T07:39:51;13.00;;;9.40;;
13090;SDS011;6611;52.604;13.438;2024-02-15T07:44:54;13.17;;;8.87;;
13090;SDS011;6611;52.604;13.438;2024-02-15T07:49:56;13.70;;;9.00;;
13090;SDS011;6611;52.604;13.438;2024-02-15T07:54:58;13.17;;;8.87;;
13090;SDS011;6611;52.604;13.438;2024-02-15T08:00:03;12.00;;;8.93;;
13090;SDS011;6611;52.604;13.438;2024-02-15T08:05:10;12.80;;;9.10;;
13090;SDS011;6611;52.604;13.438;2024-02-15T08:10:14;12.20;;;8.80;;
13090;SDS011;6611;52.604;13.438;2024-02-15T08:15:17;10.73;;;8.30;;
13090;SDS011;6611;52.604;13.438;2024-02-15T08:20:19;13.40;;;8.43;;
13090;SDS011;6611;52.604;13.438;2024-02-15T08:25:21;10.87;;;7.87;;
13090;SDS011;6611;52.604;13.438;2024-02-15T08:30:24;11.23;;;7.73;;
13090;SDS011;6611;52.604;13.438;2024-02-15T08:35:27;14.13;;;7.63;;
13090;SDS011;6611;52.604;13.438;2024-02-15T08:40:29;10.83;;;7.17;;
13090;SDS011;6611;52.604;13.438;2024-02-15T08:45:32;9.93;;;6.83;;
13090;SDS011;6611;52.604;13.438;2024-02-15T08:50:35;9.13;;;6.77;;
13090;SDS011;6611;52.604;13.438;2024-02-15T08:55:37;11.13;;;6.77;;
13090;SDS011;6611;52.604;13.438;2024-02-15T09:00:40;10.67;;;7.57;;
13090;SDS011;6611;52.604;13.438;2024-02-15T09:05:44;10.00;;;6.97;;
13090;SDS011;6611;52.604;13.438;2024-02-15T09:10:46;8.80;;;6.87;;
13090;SDS011;6611;52.604;13.438;2024-02-15T09:15:49;9.73;;;7.10;;
13090;SDS011;6611;52.604;13.438;2024-02-15T09:20:51;8.80;;;7.40;;
13090;SDS011;6611;52.604;13.438;2024-02-15T09:25:55;8.30;;;6.53;;
13090;SDS011;6611;52.604;13.438;2024-02-15T09:30:58;8.93;;;6.90;;
13090;SDS011;6611;52.604;13.438;2024-02-15T09:36:01;9.07;;;6.27;;
13090;SDS011;6611;52.604;13.438;2024-02-15T09:41:03;7.83;;;5.90;;
13090;SDS011;6611;52.604;13.438;2024-02-15T09:46:08;7.03;;;5.93;;
13090;SDS011;6611;52.604;13.438;2024-02-15T09:51:10;8.07;;;5.90;;
13090;SDS011;6611;52.604;13.438;2024-02-15T09:56:12;7.93;;;5.73;;
13090;SDS011;6611;52.604;13.438;2024-02-15T10:01:16;8.07;;;5.53;;
13090;SDS011;6611;52.604;13.438;2024-02-15T10:06:20;7.23;;;5.73;;
13090;SDS011;6611;52.604;13.438;2024-02-15T10:11:22;8.73;;;5.17;;
13090;SDS011;6611;52.604;13.438;2024-02-15T10:16:26;6.93;;;5.77;;
13090;SDS011;6611;52.604;13.438;2024-02-15T10:21:27;7.77;;;5.33;;
13090;SDS011;6611;52.604;13.438;2024-02-15T10:26:31;8.10;;;5.40;;
13090;SDS011;6611;52.604;13.438;2024-02-15T10:31:34;7.17;;;5.47;;
13090;SDS011;6611;52.604;13.438;2024-02-15T10:36:36;8.43;;;5.30;;
13090;SDS011;6611;52.604;13.438;2024-02-15T10:41:38;6.87;;;4.97;;
13090;SDS011;6611;52.604;13.438;2024-02-15T10:46:43;6.53;;;5.00;;
13090;SDS011;6611;52.604;13.438;2024-02-15T10:51:49;6.30;;;4.93;;
13090;SDS011;6611;52.604;13.438;2024-02-15T10:56:53;5.97;;;5.17;;
13090;SDS011;6611;52.604;13.438;2024-02-15T11:02:00;5.67;;;4.67;;
13090;SDS011;6611;52.604;13.438;2024-02-15T11:07:05;5.20;;;4.20;;
13090;SDS011;6611;52.604;13.438;2024-02-15T11:12:07;5.57;;;4.50;;
13090;SDS011;6611;52.604;13.438;2024-02-15T11:17:10;4.87;;;3.90;;
13090;SDS011;6611;52.604;13.438;2024-02-15T11:22:13;5.87;;;4.07;;
13090;SDS011;6611;52.604;13.438;2024-02-15T11:27:26;6.10;;;3.33;;
13090;SDS011;6611;52.604;13.438;2024-02-15T11:32:42;5.57;;;3.50;;
13090;SDS011;6611;52.604;13.438;2024-02-15T11:37:56;6.10;;;3.67;;
13090;SDS011;6611;52.604;13.438;2024-02-15T11:43:04;4.27;;;3.53;;
13090;SDS011;6611;52.604;13.438;2024-02-15T11:48:08;5.40;;;3.73;;
13090;SDS011;6611;52.604;13.438;2024-02-15T11:53:11;3.70;;;3.03;;
13090;SDS011;6611;52.604;13.438;2024-02-15T11:58:13;4.50;;;2.90;;
13090;SDS011;6611;52.604;13.438;2024-02-15T12:03:23;3.97;;;3.07;;
13090;SDS011;6611;52.604;13.438;2024-02-15T12:08:44;4.10;;;3.10;;
13090;SDS011;6611;52.604;13.438;2024-02-15T12:14:03;3.27;;;2.97;;
13090;SDS011;6611;52.604;13.438;2024-02-15T12:19:24;4.80;;;3.40;;
13090;SDS011;6611;52.604;13.438;2024-02-15T12:24:26;5.43;;;3.63;;
13090;SDS011;6611;52.604;13.438;2024-02-15T12:29:28;4.83;;;4.23;;
13090;SDS011;6611;52.604;13.438;2024-02-15T12:34:32;5.17;;;3.83;;
13090;SDS011;6611;52.604;13.438;2024-02-15T12:39:33;8.10;;;4.23;;
13090;SDS011;6611;52.604;13.438;2024-02-15T12:44:37;6.63;;;4.30;;
13090;SDS011;6611;52.604;13.438;2024-02-15T12:49:47;6.03;;;4.50;;
13090;SDS011;6611;52.604;13.438;2024-02-15T12:54:50;4.93;;;3.53;;
13090;SDS011;6611;52.604;13.438;2024-02-15T13:00:08;3.40;;;2.80;;
13090;SDS011;6611;52.604;13.438;2024-02-15T13:05:20;3.73;;;2.83;;
13090;SDS011;6611;52.604;13.438;2024-02-15T13:10:23;3.20;;;2.60;;
13090;SDS011;6611;52.604;13.438;2024-02-15T13:15:25;3.03;;;2.30;;
13090;SDS011;6611;52.604;13.438;2024-02-15T13:20:34;5.37;;;2.60;;
13090;SDS011;6611;52.604;13.438;2024-02-15T13:25:37;4.17;;;2.50;;
13090;SDS011;6611;52.604;13.438;2024-02-15T13:30:39;2.80;;;2.30;;
13090;SDS011;6611;52.604;13.438;2024-02-15T13:35:44;10.37;;;3.60;;
13090;SDS011;6611;52.604;13.438;2024-02-15T13:40:45;3.77;;;2.60;;
13090;SDS011;6611;52.604;13.438;2024-02-15T13:45:49;3.90;;;3.00;;
13090;SDS011;6611;52.604;13.438;2024-02-15T13:50:53;4.43;;;2.97;;
13090;SDS011;6611;52.604;13.438;2024-02-15T13:55:54;4.30;;;2.57;;
13090;SDS011;6611;52.604;13.438;2024-02-15T14:00:56;4.00;;;3.20;;
13090;SDS011;6611;52.604;13.438;2024-02-15T14:06:02;7.83;;;3.03;;
13090;SDS011;6611;52.604;13.438;2024-02-15T14:11:04;6.00;;;3.10;;
13090;SDS011;6611;52.604;13.438;2024-02-15T14:16:06;4.83;;;3.00;;
13090;SDS011;6611;52.604;13.438;2024-02-15T14:21:09;4.00;;;3.30;;
13090;SDS011;6611;52.604;13.438;2024-02-15T14:26:11;3.97;;;2.87;;
13090;SDS011;6611;52.604;13.438;2024-02-15T14:31:13;3.93;;;2.67;;
13090;SDS011;6611;52.604;13.438;2024-02-15T14:36:38;2.73;;;2.47;;
13090;SDS011;6611;52.604;13.438;2024-02-15T14:41:39;4.47;;;2.90;;
13090;SDS011;6611;52.604;13.438;2024-02-15T14:46:43;3.57;;;2.83;;
13090;SDS011;6611;52.604;13.438;2024-02-15T14:51:46;2.87;;;2.50;;
13090;SDS011;6611;52.604;13.438;2024-02-15T14:56:49;5.10;;;3.00;;
13090;SDS011;6611;52.604;13.438;2024-02-15T15:01:51;3.60;;;3.20;;
13090;SDS011;6611;52.604;13.438;2024-02-15T15:06:54;6.20;;;3.37;;
13090;SDS011;6611;52.604;13.438;2024-02-15T15:12:13;4.17;;;3.10;;
13090;SDS011;6611;52.604;13.438;2024-02-15T15:17:33;4.50;;;3.37;;
13090;SDS011;6611;52.604;13.438;2024-02-15T15:22:37;3.63;;;2.83;;
13090;SDS011;6611;52.604;13.438;2024-02-15T15:27:39;4.90;;;3.40;;
13090;SDS011;6611;52.604;13.438;2024-02-15T15:32:41;3.50;;;3.20;;
13090;SDS011;6611;52.604;13.438;2024-02-15T15:37:46;4.50;;;3.33;;
13090;SDS011;6611;52.604;13.438;2024-02-15T15:42:50;5.87;;;3.10;;
13090;SDS011;6611;52.604;13.438;2024-02-15T15:47:52;3.70;;;3.20;;
13090;SDS011;6611;52.604;13.438;2024-02-15T15:52:56;6.23;;;3.77;;
13090;SDS011;6611;52.604;13.438;2024-02-15T15:57:58;5.70;;;3.77;;
13090;SDS011;6611;52.604;13.438;2024-02-15T16:03:00;4.93;;;3.63;;
13090;SDS011;6611;52.604;13.438;2024-02-15T16:08:06;4.17;;;3.63;;
13090;SDS011;6611;52.604;13.438;2024-02-15T16:13:08;4.17;;;3.23;;
13090;SDS011;6611;52.604;13.438;2024-02-15T16:18:09;3.30;;;3.00;;
13090;SDS011;6611;52.604;13.438;2024-02-15T16:23:12;4.50;;;3.20;;
13090;SDS011;6611;52.604;13.438;2024-02-15T16:28:14;5.47;;;4.10;;
13090;SDS011;6611;52.604;13.438;2024-02-15T16:33:16;5.13;;;4.63;;
13090;SDS011;6611;52.604;13.438;2024-02-15T16:38:19;4.73;;;3.70;;
13090;SDS011;6611;52.604;13.438;2024-02-15T16:43:20;4.80;;;2.97;;
13090;SDS011;6611;52.604;13.438;2024-02-15T16:48:22;4.13;;;3.60;;
13090;SDS011;6611;52.604;13.438;2024-02-15T16:53:25;5.30;;;3.67;;
13090;SDS011;6611;52.604;13.438;2024-02-15T16:58:27;3.87;;;3.10;;
13090;SDS011;6611;52.604;13.438;2024-02-15T17:03:28;8.27;;;5.50;;
13090;SDS011;6611;52.604;13.438;2024-02-15T17:08:31;5.03;;;4.17;;
13090;SDS011;6611;52.604;13.438;2024-02-15T17:13:33;4.30;;;3.80;;
13090;SDS011;6611;52.604;13.438;2024-02-15T17:18:36;5.53;;;3.47;;
13090;SDS011;6611;52.604;13.438;2024-02-15T17:23:39;5.67;;;4.53;;
13090;SDS011;6611;52.604;13.438;2024-02-15T17:28:43;3.97;;;3.57;;
13090;SDS011;6611;52.604;13.438;2024-02-15T17:33:45;4.57;;;3.50;;
13090;SDS011;6611;52.604;13.438;2024-02-15T17:38:48;6.03;;;3.87;;
13090;SDS011;6611;52.604;13.438;2024-02-15T17:43:50;5.27;;;3.80;;
13090;SDS011;6611;52.604;13.438;2024-02-15T17:48:57;3.93;;;2.90;;
13090;SDS011;6611;52.604;13.438;2024-02-15T17:54:00;4.47;;;3.30;;
13090;SDS011;6611;52.604;13.438;2024-02-15T17:59:02;5.60;;;4.63;;
13090;SDS011;6611;52.604;13.438;2024-02-15T18:04:04;6.13;;;4.63;;
13090;SDS011;6611;52.604;13.438;2024-02-15T18:09:07;4.87;;;3.73;;
13090;SDS011;6611;52.604;13.438;2024-02-15T18:14:09;7.47;;;5.00;;
13090;SDS011;6611;52.604;13.438;2024-02-15T18:19:11;7.80;;;4.27;;
13090;SDS011;6611;52.604;13.438;2024-02-15T18:24:14;7.63;;;4.63;;
13090;SDS011;6611;52.604;13.438;2024-02-15T18:29:15;17.53;;;10.63;;
13090;SDS011;6611;52.604;13.438;2024-02-15T18:34:18;9.00;;;6.70;;
13090;SDS011;6611;52.604;13.438;2024-02-15T18:39:22;10.93;;;7.20;;
13090;SDS011;6611;52.604;13.438;2024-02-15T18:44:27;7.87;;;6.23;;
13090;SDS011;6611;52.604;13.438;2024-02-15T18:49:29;6.60;;;5.07;;
13090;SDS011;6611;52.604;13.438;2024-02-15T18:54:32;8.27;;;4.50;;
13090;SDS011;6611;52.604;13.438;2024-02-15T18:59:34;5.97;;;4.57;;
13090;SDS011;6611;52.604;13.438;2024-02-15T19:04:36;7.20;;;4.83;;
13090;SDS011;6611;52.604;13.438;2024-02-15T19:09:40;5.47;;;4.03;;
13090;SDS011;6611;52.604;13.438;2024-02-15T19:14:41;6.93;;;4.47;;
13090;SDS011;6611;52.604;13.438;2024-02-15T19:19:43;4.57;;;3.77;;
13090;SDS011;6611;52.604;13.438;2024-02-15T19:24:46;6.27;;;4.37;;
13090;SDS011;6611;52.604;13.438;2024-02-15T19:29:50;7.13;;;4.77;;
13090;SDS011;6611;52.604;13.438;2024-02-15T19:34:52;5.37;;;4.30;;
13090;SDS011;6611;52.604;13.438;2024-02-15T19:39:55;5.17;;;4.30;;
13090;SDS011;6611;52.604;13.438;2024-02-15T19:44:57;7.47;;;4.77;;
13090;SDS011;6611;52.604;13.438;2024-02-15T19:49:59;7.23;;;4.70;;
13090;SDS011;6611;52.604;13.438;2024-02-15T19:55:02;5.37;;;4.73;;
13090;SDS011;6611;52.604;13.438;2024-02-15T20:00:04;5.30;;;4.77;;
13090;SDS011;6611;52.604;13.438;2024-02-15T20:05:07;5.97;;;4.77;;
13090;SDS011;6611;52.604;13.438;2024-02-15T20:10:11;5.70;;;4.70;;
13090;SDS011;6611;52.604;13.438;2024-02-15T20:15:12;7.20;;;4.40;;
13090;SDS011;6611;52.604;13.438;2024-02-15T20:20:14;5.57;;;4.30;;
13090;SDS011;6611;52.604;13.438;2024-02-15T20:25:19;5.87;;;4.47;;
13090;SDS011;6611;52.604;13.438;2024-02-15T20:30:21;5.73;;;4.77;;
13090;SDS011;6611;52.604;13.438;2024-02-15T20:35:22;6.00;;;4.83;;
13090;SDS011;6611;52.604;13.438;2024-02-15T20:40:27;5.20;;;4.70;;
13090;SDS011;6611;52.604;13.438;2024-02-15T20:45:29;5.67;;;4.67;;
13090;SDS011;6611;52.604;13.438;2024-02-15T20:50:30;5.53;;;4.60;;
13090;SDS011;6611;52.604;13.438;2024-02-15T20:55:33;7.33;;;4.50;;
13090;SDS011;6611;52.604;13.438;2024-02-15T21:00:37;6.50;;;4.77;;
13090;SDS011;6611;52.604;13.438;2024-02-15T21:05:39;6.50;;;4.53;;
13090;SDS011;6611;52.604;13.438;2024-02-15T21:10:42;6.63;;;5.00;;
13090;SDS011;6611;52.604;13.438;2024-02-15T21:15:44;7.60;;;5.90;;
13090;SDS011;6611;52.604;13.438;2024-02-15T21:20:47;5.90;;;5.30;;
13090;SDS011;6611;52.604;13.438;2024-02-15T21:25:50;6.43;;;4.77;;
13090;SDS011;6611;52.604;13.438;2024-02-15T21:30:52;5.20;;;4.67;;
13090;SDS011;6611;52.604;13.438;2024-02-15T21:35:54;7.93;;;5.03;;
13090;SDS011;6611;52.604;13.438;2024-02-15T21:40:57;5.63;;;4.67;;
13090;SDS011;6611;52.604;13.438;2024-02-15T21:45:59;5.47;;;4.67;;
13090;SDS011;6611;52.604;13.438;2024-02-15T21:51:02;4.43;;;4.03;;
13090;SDS011;6611;52.604;13.438;2024-02-15T21:56:05;7.07;;;4.57;;
13090;SDS011;6611;52.604;13.438;2024-02-15T22:01:07;6.30;;;4.60;;
13090;SDS011;6611;52.604;13.438;2024-02-15T22:06:10;5.00;;;4.47;;
13090;SDS011;6611;52.604;13.438;2024-02-15T22:11:14;4.67;;;4.07;;
13090;SDS011;6611;52.604;13.438;2024-02-15T22:16:15;6.03;;;4.53;;
13090;SDS011;6611;52.604;13.438;2024-02-15T22:21:17;4.80;;;4.07;;
13090;SDS011;6611;52.604;13.438;2024-02-15T22:26:20;5.73;;;4.80;;
13090;SDS011;6611;52.604;13.438;2024-02-15T22:31:24;5.17;;;4.60;;
13090;SDS011;6611;52.604;13.438;2024-02-15T22:36:26;5.23;;;4.63;;
13090;SDS011;6611;52.604;13.438;2024-02-15T22:41:30;6.20;;;4.80;;
13090;SDS011;6611;52.604;13.438;2024-02-15T22:46:32;6.03;;;4.33;;
13090;SDS011;6611;52.604;13.438;2024-02-15T22:51:33;6.20;;;4.73;;
13090;SDS011;6611;52.604;13.438;2024-02-15T22:56:41;4.77;;;4.20;;
13090;SDS011;6611;52.604;13.438;2024-02-15T23:01:43;5.10;;;4.40;;
13090;SDS011;6611;52.604;13.438;2024-02-15T23:06:45;5.53;;;4.87;;
13090;SDS011;6611;52.604;13.438;2024-02-15T23:11:48;5.40;;;4.90;;
13090;SDS011;6611;52.604;13.438;2024-02-15T23:16:50;6.90;;;4.70;;
13090;SDS011;6611;52.604;13.438;2024-02-15T23:21:51;5.50;;;4.80;;
13090;SDS011;6611;52.604;13.438;2024-02-15T23:26:54;6.10;;;5.10;;
13090;SDS011;6611;52.604;13.438;2024-02-15T23:31:56;6.30;;;5.47;;
13090;SDS011;6611;52.604;13.438;2024-02-15T23:36:58;6.43;;;4.80;;
13090;SDS011;6611;52.604;13.438;2024-02-15T23:42:18;7.23;;;5.07;;
13090;SDS011;6611;52.604;13.438;2024-02-15T23:47:20;5.93;;;5.07;;
13090;SDS011;6611;52.604;13.438;2024-02-15T23:52:22;5.37;;;4.47;;
13090;SDS011;6611;52.604;13.438;2024-02-15T23:57:25;5.97;;;5.10;;
